Time;durP1;ratioP1;P1;durP2;ratioP2;P2;SDS_P1;SDS_P2;PMS_P1;PMS_P2;Temp;Humidity;BMP_temperature;BMP_pressure;BME280_temperature;BME280_humidity;BME280_pressure;Samples;Min_cycle;Max_cycle;Signal;HPM_P1;HPM_P2
2022/09/02 00:01:01;;;;;;;1.98;0.80;;;15.60;99.90;;;;;;5052907;28;20052;-88
2022/09/02 00:03:47;;;;;;;3.17;1.08;;;15.60;99.90;;;;;;5033469;28;20454;-84
2022/09/02 00:06:35;;;;;;;4.47;1.45;;;15.50;99.90;;;;;;5054004;28;20132;-84
2022/09/02 00:09:24;;;;;;;3.50;1.20;;;15.50;99.90;;;;;;5059765;28;20053;-84
2022/09/02 00:12:11;;;;;;;5.35;1.00;;;15.50;99.90;;;;;;5056483;28;20501;-86
2022/09/02 00:14:57;;;;;;;5.10;1.17;;;15.40;99.90;;;;;;5050964;28;20566;-87
2022/09/02 00:17:44;;;;;;;3.03;1.00;;;15.40;99.90;;;;;;5051030;28;20060;-82
2022/09/02 00:20:30;;;;;;;5.95;1.35;;;15.40;99.90;;;;;;5018390;28;20194;-88
2022/09/02 00:23:16;;;;;;;3.58;1.10;;;15.40;99.90;;;;;;5051507;28;20574;-89
2022/09/02 00:26:03;;;;;;;3.05;0.85;;;15.30;99.90;;;;;;5053641;28;20056;-83
2022/09/02 00:28:49;;;;;;;2.47;1.10;;;15.30;99.90;;;;;;5051169;28;20467;-84
2022/09/02 00:31:36;;;;;;;2.28;1.10;;;15.30;99.90;;;;;;5050800;28;20159;-83
2022/09/02 00:34:23;;;;;;;2.05;0.85;;;15.30;99.90;;;;;;5050422;28;20049;-87
2022/09/02 00:37:09;;;;;;;2.95;0.90;;;15.20;99.90;;;;;;5051656;28;20053;-88
2022/09/02 00:39:56;;;;;;;3.15;1.00;;;15.20;99.90;;;;;;5055152;28;20059;-84
2022/09/02 00:42:42;;;;;;;2.58;1.10;;;15.20;99.90;;;;;;5052364;28;20041;-81
2022/09/02 00:45:28;;;;;;;4.15;0.70;;;15.20;99.90;;;;;;5037492;28;20133;-84
2022/09/02 00:48:14;;;;;;;4.60;1.58;;;15.20;99.90;;;;;;5050539;28;20049;-82
2022/09/02 00:51:03;;;;;;;2.75;0.80;;;15.10;99.90;;;;;;5032287;28;20045;-81
2022/09/02 00:53:50;;;;;;;5.50;1.13;;;15.10;99.90;;;;;;5050248;28;20143;-82
2022/09/02 00:56:38;;;;;;;3.00;1.00;;;15.10;99.90;;;;;;5034451;28;20064;-83
2022/09/02 01:00:06;;;;;;;2.22;0.82;;;15.10;99.90;;;;;;5032657;28;20064;-84
2022/09/02 01:02:56;;;;;;;4.07;1.10;;;15.10;99.90;;;;;;4954206;28;20054;-83
2022/09/02 01:05:45;;;;;;;2.50;1.00;;;15.00;99.90;;;;;;4970153;28;20050;-81
2022/09/02 01:08:35;;;;;;;3.67;0.90;;;15.00;99.90;;;;;;5046093;28;20048;-82
2022/09/02 01:11:22;;;;;;;3.55;1.30;;;15.00;99.90;;;;;;5032362;28;20056;-81
2022/09/02 01:14:11;;;;;;;3.90;1.00;;;15.00;99.90;;;;;;5038926;28;20069;-88
2022/09/02 01:17:00;;;;;;;3.58;1.05;;;15.00;99.90;;;;;;5036609;28;20067;-81
2022/09/02 01:19:50;;;;;;;2.40;0.90;;;14.90;99.90;;;;;;5048846;28;20053;-82
2022/09/02 01:22:38;;;;;;;3.10;1.15;;;14.90;99.90;;;;;;5051478;28;20139;-85
2022/09/02 01:25:27;;;;;;;4.53;1.33;;;14.90;99.90;;;;;;5035648;28;20072;-83
2022/09/02 01:28:17;;;;;;;3.70;0.98;;;14.90;99.90;;;;;;5032767;28;20111;-82
2022/09/02 01:31:03;;;;;;;7.95;1.20;;;14.90;99.90;;;;;;5053665;28;20524;-81
2022/09/02 01:33:50;;;;;;;2.92;1.10;;;14.90;99.90;;;;;;5035558;28;20055;-83
2022/09/02 01:36:40;;;;;;;4.35;1.05;;;14.90;99.90;;;;;;5053299;28;20057;-81
2022/09/02 01:39:26;;;;;;;2.80;1.50;;;14.80;99.90;;;;;;5053997;28;20115;-82
2022/09/02 01:42:13;;;;;;;4.13;1.00;;;14.80;99.90;;;;;;5025795;28;20404;-82
2022/09/02 01:44:59;;;;;;;2.85;1.05;;;14.80;99.90;;;;;;5042254;28;20045;-84
2022/09/02 01:47:45;;;;;;;2.40;0.80;;;14.80;99.90;;;;;;5038126;28;20499;-81
2022/09/02 01:50:32;;;;;;;3.92;1.20;;;14.80;99.90;;;;;;5056731;28;20049;-82
2022/09/02 01:53:19;;;;;;;2.47;1.08;;;14.80;99.90;;;;;;5040344;28;20053;-83
2022/09/02 01:56:05;;;;;;;2.72;1.10;;;14.80;99.90;;;;;;5053515;28;20393;-84
2022/09/02 01:58:51;;;;;;;3.33;1.10;;;14.70;99.90;;;;;;5054479;28;20045;-82
2022/09/02 02:01:37;;;;;;;3.05;1.13;;;14.70;99.90;;;;;;5054878;28;20124;-83
2022/09/02 02:04:24;;;;;;;3.10;1.10;;;14.70;99.90;;;;;;5053307;28;20044;-83
2022/09/02 02:07:10;;;;;;;2.15;1.00;;;14.70;99.90;;;;;;5036132;28;20139;-81
2022/09/02 02:09:56;;;;;;;3.42;1.25;;;14.70;99.90;;;;;;5053862;28;20497;-83
2022/09/02 02:12:42;;;;;;;4.35;1.00;;;14.70;99.90;;;;;;5037891;28;20048;-81
2022/09/02 02:15:29;;;;;;;3.65;1.08;;;14.70;99.90;;;;;;5021209;28;20492;-83
2022/09/02 02:18:16;;;;;;;3.65;1.23;;;14.70;99.90;;;;;;5036548;28;20057;-80
2022/09/02 02:21:02;;;;;;;3.53;1.10;;;14.60;99.90;;;;;;5024869;28;20041;-81
2022/09/02 02:23:48;;;;;;;4.28;0.80;;;14.60;99.90;;;;;;5053103;28;20041;-82
2022/09/02 02:26:35;;;;;;;3.58;1.23;;;14.60;99.90;;;;;;5053354;28;20044;-86
2022/09/02 02:29:22;;;;;;;3.10;1.20;;;14.60;99.90;;;;;;5054500;28;20045;-80
2022/09/02 02:32:08;;;;;;;2.28;1.10;;;14.60;99.90;;;;;;5054303;28;20140;-81
2022/09/02 02:34:55;;;;;;;3.13;1.10;;;14.60;99.90;;;;;;5052278;28;20607;-81
2022/09/02 02:37:41;;;;;;;3.45;1.70;;;14.50;99.90;;;;;;5034982;28;20098;-81
2022/09/02 02:40:28;;;;;;;3.53;1.10;;;14.50;99.90;;;;;;5033485;28;20048;-81
2022/09/02 02:43:14;;;;;;;3.72;1.58;;;14.50;99.90;;;;;;5035091;28;20142;-83
2022/09/02 02:46:00;;;;;;;2.92;1.15;;;14.50;99.90;;;;;;5052064;28;20048;-81
2022/09/02 02:48:46;;;;;;;3.10;1.20;;;14.50;99.90;;;;;;5037555;28;20064;-81
2022/09/02 02:51:33;;;;;;;9.13;2.05;;;14.50;99.90;;;;;;5052156;28;20092;-81
2022/09/02 02:54:20;;;;;;;2.13;0.90;;;14.40;99.90;;;;;;5053200;28;20144;-85
2022/09/02 02:57:07;;;;;;;6.32;1.38;;;14.40;99.90;;;;;;5051316;28;20048;-83
2022/09/02 02:59:53;;;;;;;3.35;1.00;;;14.40;99.90;;;;;;5052115;28;20492;-83
2022/09/02 03:02:39;;;;;;;3.58;1.05;;;14.40;99.90;;;;;;5052909;28;20041;-80
2022/09/02 03:05:27;;;;;;;2.75;1.10;;;14.40;99.90;;;;;;5034310;28;20566;-81
2022/09/02 03:08:14;;;;;;;5.97;1.00;;;14.40;99.90;;;;;;5037926;28;20037;-81
2022/09/02 03:11:01;;;;;;;2.42;1.10;;;14.40;99.90;;;;;;5037776;28;20056;-80
2022/09/02 03:13:50;;;;;;;2.20;1.05;;;14.30;99.90;;;;;;5052898;28;20060;-80
2022/09/02 03:16:36;;;;;;;2.40;0.90;;;14.30;99.90;;;;;;5033539;28;20068;-83
2022/09/02 03:19:22;;;;;;;2.90;1.08;;;14.30;99.90;;;;;;5033286;28;20063;-83
2022/09/02 03:22:09;;;;;;;2.13;0.80;;;14.30;99.90;;;;;;5050410;28;20485;-81
2022/09/02 03:24:55;;;;;;;2.78;1.10;;;14.20;99.90;;;;;;5051881;28;20057;-82
2022/09/02 03:27:45;;;;;;;2.65;1.02;;;14.20;99.90;;;;;;5051759;28;20052;-82
2022/09/02 03:30:33;;;;;;;3.90;0.80;;;14.20;99.90;;;;;;5036280;28;20049;-80
2022/09/02 03:33:19;;;;;;;2.67;1.10;;;14.20;99.90;;;;;;5035101;28;20417;-88
2022/09/02 03:36:05;;;;;;;3.47;1.20;;;14.20;99.90;;;;;;5053569;28;20047;-82
2022/09/02 03:38:52;;;;;;;3.15;1.40;;;14.20;99.90;;;;;;5055026;28;20053;-81
2022/09/02 03:41:42;;;;;;;3.20;1.30;;;14.10;99.90;;;;;;5051432;28;20091;-80
2022/09/02 03:44:28;;;;;;;4.25;1.23;;;14.20;99.90;;;;;;5036749;28;20562;-80
2022/09/02 03:47:16;;;;;;;2.95;1.10;;;14.10;99.90;;;;;;5021701;28;20558;-80
2022/09/02 03:50:03;;;;;;;5.47;1.45;;;14.10;99.90;;;;;;5050136;28;20049;-80
2022/09/02 03:52:52;;;;;;;4.00;1.20;;;14.10;99.90;;;;;;5031610;28;20088;-82
2022/09/02 03:55:39;;;;;;;3.75;1.23;;;14.00;99.90;;;;;;5032448;28;20041;-81
2022/09/02 03:58:25;;;;;;;5.03;1.10;;;14.00;99.90;;;;;;5049900;28;20497;-81
2022/09/02 04:01:19;;;;;;;4.03;1.02;;;13.90;99.90;;;;;;5035921;28;20095;-86
2022/09/02 04:04:05;;;;;;;2.88;1.20;;;13.90;99.90;;;;;;5053707;28;20084;-82
2022/09/02 04:06:53;;;;;;;3.40;1.30;;;13.90;99.90;;;;;;5043941;28;20098;-80
2022/09/02 04:09:39;;;;;;;3.35;1.20;;;13.90;99.90;;;;;;5034125;28;20045;-84
2022/09/02 04:12:25;;;;;;;2.72;1.13;;;13.90;99.90;;;;;;5050930;28;20052;-83
2022/09/02 04:15:12;;;;;;;2.67;1.35;;;13.90;99.90;;;;;;5050891;28;20425;-84
2022/09/02 04:17:58;;;;;;;2.33;1.35;;;13.80;99.90;;;;;;5054968;28;20380;-82
2022/09/02 04:20:45;;;;;;;3.95;1.33;;;13.80;99.90;;;;;;5040271;28;20049;-82
2022/09/02 04:23:32;;;;;;;3.97;1.65;;;13.80;99.90;;;;;;5058802;28;20087;-82
2022/09/02 04:26:20;;;;;;;3.58;1.40;;;13.80;99.90;;;;;;5040620;28;20049;-81
2022/09/02 04:29:08;;;;;;;3.42;1.10;;;13.80;99.90;;;;;;5056431;28;20052;-81
2022/09/02 04:31:54;;;;;;;2.47;1.08;;;13.80;99.90;;;;;;5040860;28;20109;-82
2022/09/02 04:34:40;;;;;;;2.60;1.00;;;13.80;99.90;;;;;;5054470;28;20060;-82
2022/09/02 04:37:26;;;;;;;3.80;0.93;;;13.80;99.90;;;;;;5054667;28;20098;-82
2022/09/02 04:40:12;;;;;;;5.38;1.55;;;13.80;99.90;;;;;;5039804;28;20404;-86
2022/09/02 04:42:59;;;;;;;2.50;1.10;;;13.70;99.90;;;;;;5056695;28;20119;-86
2022/09/02 04:45:46;;;;;;;5.90;1.40;;;13.70;99.90;;;;;;5051879;28;20084;-82
2022/09/02 04:48:35;;;;;;;2.85;1.30;;;13.70;99.90;;;;;;5032016;28;20137;-81
2022/09/02 04:51:23;;;;;;;2.85;1.30;;;13.70;99.90;;;;;;5051123;28;20500;-84
2022/09/02 04:54:09;;;;;;;8.35;1.60;;;13.60;99.90;;;;;;5049762;28;20467;-86
2022/09/02 04:56:55;;;;;;;4.47;1.90;;;13.60;99.90;;;;;;5032235;28;20056;-85
2022/09/02 04:59:42;;;;;;;2.22;1.10;;;13.60;99.90;;;;;;5031926;28;20425;-86
2022/09/02 05:02:28;;;;;;;3.60;1.20;;;13.60;99.90;;;;;;5020626;28;20053;-86
2022/09/02 05:05:14;;;;;;;6.70;1.50;;;13.60;99.90;;;;;;5054349;28;20485;-87
2022/09/02 05:08:03;;;;;;;3.75;1.73;;;13.60;99.90;;;;;;5053542;28;20505;-81
2022/09/02 05:10:49;;;;;;;3.92;1.48;;;13.70;99.90;;;;;;5036353;28;20049;-82
2022/09/02 05:13:35;;;;;;;4.70;1.63;;;13.70;99.90;;;;;;5056761;28;20056;-84
2022/09/02 05:16:25;;;;;;;4.57;1.30;;;13.60;99.90;;;;;;5053868;28;20049;-82
2022/09/02 05:19:12;;;;;;;4.57;1.65;;;13.70;99.90;;;;;;5042292;28;20419;-81
2022/09/02 05:22:00;;;;;;;4.18;1.38;;;13.70;99.90;;;;;;5056933;28;20187;-81
2022/09/02 05:24:46;;;;;;;3.95;1.42;;;13.70;99.90;;;;;;5057781;28;20056;-83
2022/09/02 05:27:32;;;;;;;3.90;1.40;;;13.70;99.90;;;;;;5057708;28;20206;-84
2022/09/02 05:30:19;;;;;;;5.60;1.50;;;13.70;99.90;;;;;;5058088;28;20049;-80
2022/09/02 05:33:07;;;;;;;3.35;1.40;;;13.80;99.90;;;;;;5058458;28;20144;-80
2022/09/02 05:35:53;;;;;;;3.25;1.27;;;13.80;99.90;;;;;;5025601;28;20045;-80
2022/09/02 05:38:41;;;;;;;5.88;1.65;;;13.80;99.90;;;;;;5038307;28;20131;-79
2022/09/02 05:41:27;;;;;;;5.03;1.23;;;13.90;99.90;;;;;;5039014;28;20049;-79
2022/09/02 05:44:13;;;;;;;3.28;1.40;;;14.00;99.90;;;;;;5054605;28;20055;-81
2022/09/02 05:47:00;;;;;;;3.05;1.30;;;14.00;99.90;;;;;;5054804;28;20057;-81
2022/09/02 05:49:46;;;;;;;3.60;1.40;;;14.10;99.90;;;;;;5053407;28;20049;-81
2022/09/02 05:52:32;;;;;;;6.15;1.58;;;14.10;99.90;;;;;;5034857;28;20106;-81
2022/09/02 05:55:19;;;;;;;3.20;1.33;;;14.20;99.90;;;;;;5052101;28;20512;-84
2022/09/02 05:58:05;;;;;;;2.45;1.23;;;14.30;99.90;;;;;;5052618;28;20049;-83
2022/09/02 06:00:52;;;;;;;4.35;1.45;;;14.30;99.90;;;;;;5053440;28;20131;-83
2022/09/02 06:03:38;;;;;;;3.05;1.30;;;14.40;99.90;;;;;;5057290;28;20060;-80
2022/09/02 06:06:24;;;;;;;5.78;1.67;;;14.40;99.90;;;;;;5039249;28;20084;-81
2022/09/02 06:09:12;;;;;;;3.47;1.10;;;14.50;99.90;;;;;;5055601;28;20497;-81
2022/09/02 06:11:59;;;;;;;3.53;1.10;;;14.60;99.90;;;;;;5036235;28;20041;-81
2022/09/02 06:14:47;;;;;;;2.67;1.38;;;14.60;99.90;;;;;;5051714;28;20073;-83
2022/09/02 06:17:33;;;;;;;5.82;1.38;;;14.70;99.90;;;;;;5052216;28;20580;-81
2022/09/02 06:20:20;;;;;;;4.88;1.35;;;14.80;99.90;;;;;;5054233;28;20057;-83
2022/09/02 06:23:06;;;;;;;3.53;1.00;;;14.90;99.90;;;;;;5020725;28;20128;-82
2022/09/02 06:25:52;;;;;;;4.50;1.20;;;15.00;99.90;;;;;;5051879;28;20132;-82
2022/09/02 06:28:39;;;;;;;3.90;1.38;;;15.10;99.90;;;;;;5052064;28;20061;-81
2022/09/02 06:31:27;;;;;;;5.78;1.00;;;15.20;99.90;;;;;;5052427;28;20063;-81
2022/09/02 06:34:15;;;;;;;3.20;1.20;;;15.30;99.90;;;;;;5038575;28;20067;-81
2022/09/02 06:37:01;;;;;;;3.42;1.20;;;15.40;99.90;;;;;;5035041;28;20041;-80
2022/09/02 06:39:47;;;;;;;2.60;1.20;;;15.60;99.90;;;;;;5052670;28;20045;-82
2022/09/02 06:42:34;;;;;;;3.25;1.10;;;15.80;99.90;;;;;;5052847;28;20069;-83
2022/09/02 06:45:23;;;;;;;4.47;1.40;;;15.90;99.90;;;;;;5052876;28;20056;-83
2022/09/02 06:48:10;;;;;;;2.70;1.13;;;16.10;99.90;;;;;;5037616;28;20509;-84
2022/09/02 06:50:56;;;;;;;2.70;1.25;;;16.30;99.90;;;;;;5052601;28;20057;-82
2022/09/02 06:53:42;;;;;;;3.55;1.20;;;16.40;99.90;;;;;;5052615;28;20057;-82
2022/09/02 06:56:28;;;;;;;6.43;1.27;;;16.50;99.90;;;;;;5036900;28;20454;-83
2022/09/02 06:59:16;;;;;;;5.10;1.48;;;16.70;99.90;;;;;;5051334;28;20057;-83
2022/09/02 07:02:02;;;;;;;3.35;1.23;;;16.90;99.90;;;;;;5051315;28;20057;-85
2022/09/02 07:07:54;;;;;;;4.20;1.10;;;17.20;99.90;;;;;;5052456;28;20041;-83
2022/09/02 07:10:40;;;;;;;3.88;1.33;;;17.30;99.90;;;;;;5055143;28;20283;-81
2022/09/02 07:13:27;;;;;;;7.63;1.77;;;17.50;99.90;;;;;;5037737;28;20056;-81
2022/09/02 07:16:16;;;;;;;3.83;1.20;;;17.70;99.90;;;;;;5052277;28;20504;-79
2022/09/02 07:19:03;;;;;;;6.10;1.60;;;17.90;99.90;;;;;;5035891;28;20112;-85
2022/09/02 07:21:50;;;;;;;4.15;2.03;;;18.00;99.90;;;;;;5039277;28;20049;-89
2022/09/02 07:24:36;;;;;;;2.97;1.48;;;18.20;99.90;;;;;;5053178;28;20049;-81
2022/09/02 07:27:26;;;;;;;4.43;1.23;;;18.40;99.70;;;;;;5052835;28;20124;-81
2022/09/02 07:30:13;;;;;;;3.17;1.27;;;18.60;99.50;;;;;;5051849;28;20052;-86
2022/09/02 07:33:00;;;;;;;4.72;1.50;;;18.70;99.30;;;;;;5035715;28;20037;-81
2022/09/02 07:35:47;;;;;;;3.45;1.20;;;18.90;99.20;;;;;;5033169;28;20048;-82
2022/09/02 07:38:34;;;;;;;3.85;1.30;;;19.00;98.60;;;;;;5051273;28;20037;-81
2022/09/02 07:41:21;;;;;;;3.08;1.20;;;19.20;98.30;;;;;;5050057;28;20052;-82
2022/09/02 07:44:07;;;;;;;3.80;1.30;;;19.30;97.90;;;;;;5036849;28;20080;-87
2022/09/02 07:46:54;;;;;;;4.35;1.10;;;19.50;97.70;;;;;;5033343;28;20048;-80
2022/09/02 07:49:43;;;;;;;4.25;1.27;;;19.60;97.40;;;;;;5051882;28;20059;-81
2022/09/02 07:52:29;;;;;;;3.45;1.20;;;19.80;97.20;;;;;;5035855;28;20045;-81
2022/09/02 07:55:15;;;;;;;5.32;1.15;;;19.80;97.00;;;;;;5033455;28;20076;-85
2022/09/02 07:58:03;;;;;;;3.28;1.20;;;20.00;96.90;;;;;;5051479;28;20056;-86
2022/09/02 08:00:50;;;;;;;4.15;1.42;;;20.10;96.60;;;;;;5054033;28;20476;-81
2022/09/02 08:03:38;;;;;;;6.00;1.10;;;20.30;96.50;;;;;;5053787;28;20061;-83
2022/09/02 08:06:26;;;;;;;3.75;1.00;;;20.40;96.00;;;;;;5033314;28;20045;-83
2022/09/02 08:09:12;;;;;;;3.47;1.10;;;20.50;96.20;;;;;;5019492;28;20167;-85
2022/09/02 08:11:58;;;;;;;3.63;1.45;;;20.70;96.20;;;;;;5050732;28;20444;-81
2022/09/02 08:14:44;;;;;;;4.00;1.25;;;20.90;95.80;;;;;;5049536;28;20496;-85
2022/09/02 08:17:30;;;;;;;3.55;1.13;;;20.80;95.30;;;;;;5034943;28;20059;-81
2022/09/02 08:20:17;;;;;;;4.28;1.23;;;21.10;95.50;;;;;;5050773;28;20061;-83
2022/09/02 08:23:07;;;;;;;4.88;0.80;;;21.20;95.00;;;;;;5036217;28;20095;-87
2022/09/02 08:25:53;;;;;;;3.85;0.85;;;21.30;94.80;;;;;;5019533;28;20041;-86
2022/09/02 08:28:39;;;;;;;3.65;1.48;;;21.50;94.90;;;;;;5050826;28;20048;-85
2022/09/02 08:31:25;;;;;;;3.30;1.42;;;21.70;94.60;;;;;;5033336;28;20064;-83
2022/09/02 08:34:11;;;;;;;5.38;1.17;;;21.90;94.40;;;;;;5041028;28;20663;-85
2022/09/02 08:36:57;;;;;;;3.90;1.02;;;22.00;94.10;;;;;;5055624;28;20130;-81
2022/09/02 08:39:47;;;;;;;2.90;1.10;;;22.00;93.40;;;;;;5060359;28;20064;-84
2022/09/02 08:42:42;;;;;;;3.67;1.23;;;22.10;93.40;;;;;;5044742;28;20089;-81
2022/09/02 08:45:31;;;;;;;2.17;1.05;;;22.30;93.00;;;;;;5040050;28;20079;-83
2022/09/02 08:48:38;;;;;;;3.10;1.25;;;22.30;92.70;;;;;;5055978;28;20103;-82
2022/09/02 08:51:40;;;;;;;7.75;1.75;;;22.50;92.70;;;;;;5040076;28;20063;-80
2022/09/02 08:54:33;;;;;;;6.95;2.10;;;22.60;91.50;;;;;;5036584;28;20057;-81
2022/09/02 08:57:19;;;;;;;2.53;1.05;;;22.70;91.20;;;;;;5040118;28;20405;-80
2022/09/02 09:00:06;;;;;;;4.47;1.20;;;22.70;91.50;;;;;;5039662;28;20053;-83
2022/09/02 09:03:15;;;;;;;3.85;1.13;;;22.90;91.10;;;;;;5038028;28;20068;-84
2022/09/02 09:06:15;;;;;;;2.67;1.05;;;23.10;90.90;;;;;;5060441;28;20045;-86
2022/09/02 09:09:12;;;;;;;3.15;1.00;;;23.30;90.70;;;;;;5058489;28;20466;-83
2022/09/02 09:12:17;;;;;;;4.38;0.93;;;23.40;91.10;;;;;;5056118;28;20492;-86
2022/09/02 09:15:31;;;;;;;1.85;0.85;;;23.50;89.90;;;;;;5055186;28;20044;-81
2022/09/02 09:18:48;;;;;;;3.70;1.00;;;23.60;89.70;;;;;;5037796;28;20076;-81
2022/09/02 09:21:34;;;;;;;5.53;1.38;;;23.70;88.50;;;;;;5048219;28;20052;-85
2022/09/02 09:24:29;;;;;;;4.15;1.20;;;23.80;89.80;;;;;;5040529;28;20049;-86
2022/09/02 09:27:21;;;;;;;4.13;0.95;;;23.90;89.30;;;;;;5054701;28;20053;-84
2022/09/02 09:30:09;;;;;;;2.83;0.90;;;23.90;88.80;;;;;;5054514;28;20092;-86
2022/09/02 09:32:59;;;;;;;5.90;1.00;;;24.10;88.40;;;;;;5023449;28;20106;-82
2022/09/02 09:35:49;;;;;;;2.53;0.90;;;24.20;87.00;;;;;;5055818;28;20048;-82
2022/09/02 09:38:37;;;;;;;3.95;0.82;;;24.40;86.10;;;;;;5056343;28;20049;-88
2022/09/02 09:41:23;;;;;;;4.10;1.23;;;24.60;86.80;;;;;;5035014;28;20064;-82
2022/09/02 09:44:09;;;;;;;3.15;1.00;;;24.80;85.80;;;;;;5055192;28;20136;-83
2022/09/02 09:47:05;;;;;;;3.97;1.10;;;24.80;85.70;;;;;;5040990;28;20501;-82
2022/09/02 09:50:11;;;;;;;3.70;1.20;;;24.90;84.30;;;;;;5055066;28;20389;-82
2022/09/02 09:53:20;;;;;;;;;;;25.00;83.80;;;;;;5054994;28;20045;-83
2022/09/02 09:56:23;;;;;;;5.88;1.42;;;25.00;82.20;;;;;;5043161;28;19974;-80
2022/09/02 09:59:35;;;;;;;4.50;1.48;;;25.20;81.70;;;;;;5026399;28;20131;-84
2022/09/02 10:02:25;;;;;;;4.25;0.90;;;25.20;81.50;;;;;;5062872;28;20103;-81
2022/09/02 10:05:23;;;;;;;4.38;0.90;;;25.40;81.70;;;;;;5045920;28;20226;-82
2022/09/02 10:08:15;;;;;;;2.42;0.63;;;25.60;79.50;;;;;;5059515;28;20107;-84
2022/09/02 10:11:05;;;;;;;5.65;0.95;;;25.90;79.70;;;;;;5060914;28;20102;-89
2022/09/02 10:14:00;;;;;;;3.67;0.90;;;25.90;78.00;;;;;;5041287;28;20053;-84
2022/09/02 10:17:36;;;;;;;3.38;1.05;;;25.90;76.70;;;;;;5043058;28;20048;-85
2022/09/02 10:20:45;;;;;;;2.65;0.90;;;26.00;74.90;;;;;;4961455;28;20132;-85
2022/09/02 10:24:09;;;;;;;6.50;0.80;;;26.10;75.50;;;;;;4944970;28;20054;-89
2022/09/02 10:26:58;;;;;;;3.92;0.70;;;26.30;76.20;;;;;;4974674;28;20047;-81
2022/09/02 10:30:06;;;;;;;3.67;0.90;;;26.40;74.80;;;;;;5021756;28;20152;-81
2022/09/02 10:33:13;;;;;;;5.57;1.60;;;26.50;72.40;;;;;;5036024;28;20404;-81
2022/09/02 10:36:06;;;;;;;7.70;1.23;;;26.70;73.70;;;;;;5055208;28;20049;-84
2022/09/02 10:38:53;;;;;;;4.53;0.80;;;26.70;71.30;;;;;;5037298;28;20083;-82
2022/09/02 10:41:47;;;;;;;2.55;0.70;;;26.80;70.70;;;;;;5036363;28;20560;-84
2022/09/02 10:44:44;;;;;;;5.45;1.15;;;26.90;71.80;;;;;;5053387;28;20377;-82
2022/09/02 10:47:39;;;;;;;2.65;0.77;;;27.00;70.90;;;;;;5053614;28;20064;-83
2022/09/02 10:50:47;;;;;;;6.57;0.98;;;27.10;69.60;;;;;;5035583;28;20408;-84
2022/09/02 10:54:08;;;;;;;5.18;0.98;;;27.10;69.10;;;;;;5054264;28;20397;-82
2022/09/02 10:57:00;;;;;;;6.15;0.70;;;27.30;68.50;;;;;;5049891;28;20107;-82
2022/09/02 11:00:20;;;;;;;9.45;0.90;;;27.30;66.70;;;;;;5034314;28;20055;-82
2022/09/02 11:03:37;;;;;;;3.33;0.80;;;27.40;64.40;;;;;;5020812;28;20053;-81
2022/09/02 11:06:28;;;;;;;4.93;0.90;;;27.40;64.50;;;;;;5053020;28;20562;-82
2022/09/02 11:09:27;;;;;;;4.47;1.00;;;28.00;66.30;;;;;;5051401;28;20412;-84
2022/09/02 11:12:17;;;;;;;2.78;0.88;;;28.20;63.80;;;;;;5053640;28;20051;-90
2022/09/02 11:15:15;;;;;;;6.20;1.10;;;28.30;64.20;;;;;;5051219;28;20053;-83
2022/09/02 11:18:12;;;;;;;3.10;0.63;;;28.40;63.30;;;;;;5039870;28;20044;-88
2022/09/02 11:21:36;;;;;;;2.90;0.80;;;28.40;61.90;;;;;;5053705;28;20479;-84
2022/09/02 11:27:03;;;;;;;4.25;1.27;;;28.70;62.10;;;;;;5250093;22;20072;-81
2022/09/02 11:29:49;;;;;;;4.80;0.80;;;29.00;61.90;;;;;;5034055;28;20523;-81
2022/09/02 11:32:50;;;;;;;2.72;0.98;;;29.00;62.00;;;;;;5051583;28;20049;-81
2022/09/02 11:35:38;;;;;;;3.83;1.00;;;29.10;60.40;;;;;;5051362;28;20049;-81
2022/09/02 11:38:35;;;;;;;3.17;0.98;;;29.10;60.50;;;;;;5033162;28;20052;-80
2022/09/02 11:41:34;;;;;;;5.60;1.00;;;29.30;60.20;;;;;;5034376;28;20060;-84
2022/09/02 11:44:28;;;;;;;3.05;0.80;;;29.60;60.60;;;;;;5050569;28;20057;-84
2022/09/02 11:47:15;;;;;;;6.63;1.38;;;29.60;59.50;;;;;;5050622;28;20464;-85
2022/09/02 11:50:25;;;;;;;5.22;0.70;;;29.50;57.60;;;;;;5050244;28;20102;-83
2022/09/02 11:53:26;;;;;;;11.38;1.00;;;29.90;57.70;;;;;;5032155;28;20501;-81
2022/09/02 11:56:27;;;;;;;4.40;0.82;;;29.70;55.20;;;;;;5032939;28;20053;-81
2022/09/02 11:59:52;;;;;;;4.43;0.85;;;29.80;56.00;;;;;;5049783;28;20053;-88
2022/09/02 12:02:43;;;;;;;4.22;0.82;;;30.00;55.60;;;;;;5050083;28;20497;-80
2022/09/02 12:05:30;;;;;;;4.70;1.00;;;30.10;53.10;;;;;;5050526;28;20138;-84
2022/09/02 12:08:34;;;;;;;3.60;0.70;;;30.20;52.70;;;;;;5037602;28;20045;-82
2022/09/02 12:11:44;;;;;;;6.03;1.23;;;30.70;51.90;;;;;;5033433;28;20045;-79
2022/09/02 12:14:42;;;;;;;3.67;0.80;;;31.10;52.50;;;;;;5052509;28;20053;-84
2022/09/02 12:17:36;;;;;;;4.65;0.85;;;31.20;52.20;;;;;;5033337;28;20087;-80
2022/09/02 12:20:40;;;;;;;2.58;0.68;;;31.10;49.70;;;;;;5021691;28;20048;-83
2022/09/02 12:24:05;;;;;;;2.80;0.60;;;31.40;49.00;;;;;;5051001;28;20417;-80
2022/09/02 12:26:51;;;;;;;;;;;31.60;49.30;;;;;;5021671;28;20115;-78
2022/09/02 12:29:38;;;;;;;2.33;0.82;;;31.90;49.10;;;;;;5010659;28;19922;-81
2022/09/02 12:33:03;;;;;;;2.72;0.70;;;32.10;49.30;;;;;;5010190;28;20422;-81
2022/09/02 12:35:51;;;;;;;2.33;0.60;;;32.30;47.40;;;;;;4988578;28;20050;-79
2022/09/02 12:38:39;;;;;;;4.85;1.30;;;32.20;48.80;;;;;;4996000;28;20157;-81
2022/09/02 12:41:29;;;;;;;2.78;0.65;;;33.10;48.90;;;;;;5009537;28;20050;-79
2022/09/02 12:44:19;;;;;;;3.85;0.93;;;33.40;47.70;;;;;;5010121;28;20113;-80
2022/09/02 12:47:28;;;;;;;3.60;1.00;;;33.60;46.60;;;;;;5011358;28;20072;-82
2022/09/02 12:50:49;;;;;;;2.95;0.60;;;33.60;46.00;;;;;;5011199;28;20528;-82
2022/09/02 12:53:40;;;;;;;3.22;1.15;;;33.50;44.60;;;;;;4995623;28;20085;-82
2022/09/02 12:56:27;;;;;;;2.90;1.00;;;33.80;46.10;;;;;;5009931;28;20061;-81
2022/09/02 12:59:28;;;;;;;4.28;0.63;;;34.50;46.10;;;;;;5010050;28;20053;-81
2022/09/02 13:02:39;;;;;;;1.98;0.65;;;34.70;44.50;;;;;;5009966;28;20077;-83
2022/09/02 13:05:34;;;;;;;2.67;0.77;;;34.80;43.70;;;;;;5009611;28;20517;-84
2022/09/02 13:08:39;;;;;;;5.25;1.00;;;35.10;42.90;;;;;;4996719;28;20141;-89
2022/09/02 13:11:56;;;;;;;6.07;1.00;;;35.30;42.50;;;;;;5009422;28;20421;-83
2022/09/02 13:15:04;;;;;;;4.45;0.88;;;36.10;43.10;;;;;;5015371;28;20046;-83
2022/09/02 13:18:24;;;;;;;5.38;0.85;;;36.40;42.10;;;;;;5011213;28;20494;-83
2022/09/02 13:21:28;;;;;;;4.05;0.93;;;36.10;39.70;;;;;;5011930;28;20053;-87
2022/09/02 13:24:49;;;;;;;4.65;0.60;;;36.00;41.50;;;;;;5013892;28;20088;-81
2022/09/02 13:27:59;;;;;;;3.22;0.80;;;36.80;41.00;;;;;;5005943;28;20045;-85
2022/09/02 13:31:24;;;;;;;6.30;1.23;;;37.70;40.80;;;;;;5014214;28;20050;-85
2022/09/02 13:34:12;;;;;;;2.60;0.90;;;38.10;39.10;;;;;;5000636;28;20049;-82
2022/09/02 13:36:58;;;;;;;4.40;0.85;;;38.60;38.60;;;;;;5013952;28;20136;-81
2022/09/02 13:39:47;;;;;;;3.60;0.60;;;38.90;38.90;;;;;;5015743;28;20057;-87
2022/09/02 13:42:33;;;;;;;2.58;0.90;;;38.70;37.60;;;;;;5015406;28;20406;-81
2022/09/02 13:45:23;;;;;;;4.93;0.77;;;38.50;37.80;;;;;;5011427;28;20062;-81
2022/09/02 13:48:10;;;;;;;2.85;0.88;;;38.40;37.70;;;;;;5012540;28;20077;-84
2022/09/02 13:51:00;;;;;;;3.42;0.60;;;38.60;37.60;;;;;;5012569;28;20088;-88
2022/09/02 13:53:49;;;;;;;2.13;0.90;;;38.80;37.10;;;;;;5012646;28;20046;-83
2022/09/02 13:56:36;;;;;;;5.22;0.80;;;38.30;36.90;;;;;;5013733;28;20084;-81
2022/09/02 13:59:37;;;;;;;2.97;0.70;;;38.10;36.50;;;;;;5011411;28;20086;-81
2022/09/02 14:02:29;;;;;;;4.85;0.70;;;38.10;37.10;;;;;;5013195;28;20569;-82
2022/09/02 14:05:21;;;;;;;4.20;1.02;;;38.50;37.60;;;;;;5013194;28;20042;-81
2022/09/02 14:08:12;;;;;;;3.47;0.93;;;38.30;36.00;;;;;;5011985;28;20124;-80
2022/09/02 14:11:01;;;;;;;4.60;0.90;;;38.00;36.30;;;;;;5011959;28;20049;-79
2022/09/02 14:13:49;;;;;;;4.68;0.75;;;38.20;36.90;;;;;;5013347;28;20092;-82
2022/09/02 14:16:36;;;;;;;4.20;1.05;;;38.30;36.50;;;;;;5012226;28;20061;-81
2022/09/02 14:19:24;;;;;;;4.03;1.10;;;38.40;36.70;;;;;;5010596;28;20139;-83
2022/09/02 14:22:36;;;;;;;2.97;0.60;;;38.70;37.30;;;;;;5012216;28;20065;-85
2022/09/02 14:25:24;;;;;;;2.75;0.75;;;38.80;36.50;;;;;;5017658;28;20105;-79
2022/09/02 14:28:20;;;;;;;4.88;1.08;;;38.90;37.20;;;;;;5016725;28;20046;-80
2022/09/02 14:31:07;;;;;;;4.55;1.00;;;38.60;35.20;;;;;;5013976;28;20086;-80
2022/09/02 14:33:54;;;;;;;3.88;0.70;;;38.00;35.90;;;;;;5014942;28;20073;-81
2022/09/02 14:36:40;;;;;;;5.70;1.23;;;37.80;36.20;;;;;;5011651;28;20125;-79
2022/09/02 14:39:26;;;;;;;3.80;0.80;;;37.10;36.70;;;;;;5012684;28;20054;-83
2022/09/02 14:42:14;;;;;;;5.75;0.90;;;36.50;36.50;;;;;;5012555;28;20529;-81
2022/09/02 14:45:04;;;;;;;3.33;0.63;;;35.70;37.10;;;;;;5011230;28;20101;-84
2022/09/02 14:47:50;;;;;;;4.65;1.05;;;35.50;38.00;;;;;;5010753;28;20093;-83
2022/09/02 14:50:37;;;;;;;2.38;0.88;;;36.30;38.10;;;;;;5012694;28;20042;-81
2022/09/02 14:53:26;;;;;;;3.85;0.85;;;36.40;36.80;;;;;;5014052;28;20056;-80
2022/09/02 14:56:12;;;;;;;9.50;1.80;;;36.50;37.10;;;;;;5015166;28;20046;-83
2022/09/02 14:58:58;;;;;;;3.35;0.50;;;37.20;37.30;;;;;;5012406;28;20056;-80